Time;durP1;ratioP1;P1;durP2;ratioP2;P2;SDS_P1;SDS_P2;PMS_P1;PMS_P2;Temp;Humidity;BMP_temperature;BMP_pressure;BME280_temperature;BME280_humidity;BME280_pressure;Samples;Min_cycle;Max_cycle;Signal;HPM_P1;HPM_P2
2022/08/21 00:00:43;;;;;;;;;;;;;;;16.36;100.00;-25527.44;5074608;28;19916;-80
2022/08/21 00:03:09;;;;;;;;;;;;;;;16.34;100.00;-25527.00;5075118;28;20010;-80
2022/08/21 00:05:37;;;;;;;;;;;;;;;16.32;100.00;-25526.56;5075514;28;19924;-81
2022/08/21 00:08:03;;;;;;;;;;;;;;;16.36;100.00;-25527.44;5074561;28;19924;-81
2022/08/21 00:10:28;;;;;;;;;;;;;;;16.33;100.00;-25526.72;5075871;28;20007;-81
2022/08/21 00:12:53;;;;;;;;;;;;;;;16.28;100.00;-25525.28;5075395;28;20002;-79
2022/08/21 00:15:22;;;;;;;;;;;;;;;16.21;100.00;-25523.25;5074593;28;19970;-79
2022/08/21 00:17:48;;;;;;;;;;;;;;;16.15;100.00;-25521.78;5093445;28;19927;-81
2022/08/21 00:20:15;;;;;;;;;;;;;;;16.07;100.00;-25519.47;5074330;28;19920;-76
2022/08/21 00:22:40;;;;;;;;;;;;;;;16.06;100.00;-25519.16;5107671;28;19926;-77
2022/08/21 00:25:06;;;;;;;;;;;;;;;16.07;100.00;-25519.31;5074448;28;19916;-78
2022/08/21 00:27:32;;;;;;;;;;;;;;;16.02;100.00;-25518.00;5074500;28;20130;-76
2022/08/21 00:29:57;;;;;;;;;;;;;;;15.96;100.00;-25516.25;5073202;28;19916;-76
2022/08/21 00:32:23;;;;;;;;;;;;;;;15.95;100.00;-25515.97;5074231;28;19916;-76
2022/08/21 00:34:51;;;;;;;;;;;;;;;16.05;100.00;-25518.88;5074092;28;19920;-80
2022/08/21 00:37:17;;;;;;;;;;;;;;;15.91;100.00;-25514.81;5073333;28;19919;-80
2022/08/21 00:39:43;;;;;;;;;;;;;;;15.86;100.00;-25513.50;5074263;28;19920;-79
2022/08/21 00:42:09;;;;;;;;;;;;;;;15.86;100.00;-25513.50;5074662;28;19920;-80
2022/08/21 00:44:34;;;;;;;;;;;;;;;15.84;100.00;-25512.78;5073135;28;19916;-77
2022/08/21 00:47:00;;;;;;;;;;;;;;;15.82;100.00;-25512.19;5074304;28;20284;-78
2022/08/21 00:49:25;;;;;;;;;;;;;;;15.81;100.00;-25512.06;5074187;28;19916;-77
2022/08/21 00:51:53;;;;;;;;;;;;;;;15.77;100.00;-25511.03;5073588;28;20257;-76
2022/08/21 00:54:20;;;;;;;;;;;;;;;15.72;100.00;-25509.44;5074563;28;20375;-77
2022/08/21 00:56:48;;;;;;;;;;;;;;;15.75;100.00;-25510.31;5073963;28;19916;-77
2022/08/21 00:59:13;;;;;;;;;;;;;;;15.76;100.00;-25510.59;5073716;28;20392;-77
2022/08/21 01:01:38;;;;;;;;;;;;;;;15.75;100.00;-25510.44;5074075;28;19947;-75
2022/08/21 01:04:04;;;;;;;;;;;;;;;15.80;100.00;-25511.75;5073003;28;19924;-77
2022/08/21 01:06:29;;;;;;;;;;;;;;;15.85;100.00;-25513.06;5073858;28;20360;-80
2022/08/21 01:08:55;;;;;;;;;;;;;;;15.87;100.00;-25513.78;5091866;28;19961;-78
2022/08/21 01:11:20;;;;;;;;;;;;;;;15.90;100.00;-25514.53;5073594;28;19923;-80
2022/08/21 01:13:46;;;;;;;;;;;;;;;15.89;100.00;-25514.38;5108076;28;20287;-78
2022/08/21 01:16:13;;;;;;;;;;;;;;;15.93;100.00;-25515.53;5074019;28;19972;-79
2022/08/21 01:18:39;;;;;;;;;;;;;;;15.94;100.00;-25515.69;5073238;28;19945;-79
2022/08/21 01:21:07;;;;;;;;;;;;;;;15.90;100.00;-25514.53;5073661;28;20003;-80
2022/08/21 01:23:34;;;;;;;;;;;;;;;15.89;100.00;-25514.22;5108073;28;19916;-80
2022/08/21 01:25:59;;;;;;;;;;;;;;;15.87;100.00;-25513.66;5072813;28;19916;-78
2022/08/21 01:28:26;;;;;;;;;;;;;;;15.87;100.00;-25513.66;5074285;28;19922;-79
2022/08/21 01:30:53;;;;;;;;;;;;;;;15.85;100.00;-25513.06;5073903;28;19916;-78
2022/08/21 01:33:21;;;;;;;;;;;;;;;15.82;100.00;-25512.19;5072827;28;19913;-81
2022/08/21 01:35:47;;;;;;;;;;;;;;;15.81;100.00;-25511.91;5073785;28;19916;-81
2022/08/21 01:38:12;;;;;;;;;;;;;;;15.82;100.00;-25512.19;5073635;28;20406;-81
2022/08/21 01:40:37;;;;;;;;;;;;;;;15.80;100.00;-25511.75;5072731;28;19992;-80
2022/08/21 01:43:02;;;;;;;;;;;;;;;15.82;100.00;-25512.19;5073557;28;20372;-78
2022/08/21 01:45:28;;;;;;;;;;;;;;;15.81;100.00;-25511.91;5074044;28;20295;-81
2022/08/21 01:47:54;;;;;;;;;;;;;;;15.83;100.00;-25512.50;5075908;28;19917;-77
2022/08/21 01:50:21;;;;;;;;;;;;;;;15.83;100.00;-25512.63;5078088;28;19951;-80
2022/08/21 01:52:46;;;;;;;;;;;;;;;15.81;100.00;-25512.06;5077344;28;19916;-82
2022/08/21 01:55:12;;;;;;;;;;;;;;;15.76;100.00;-25510.59;5077003;28;19923;-79
2022/08/21 01:57:37;;;;;;;;;;;;;;;15.76;100.00;-25510.59;5077879;28;20025;-80
2022/08/21 02:00:08;;;;;;;;;;;;;;;15.71;100.00;-25509.13;5076708;28;20640;-80
2022/08/21 02:02:34;;;;;;;;;;;;;;;15.70;100.00;-25508.84;5077802;28;19923;-80
2022/08/21 02:04:59;;;;;;;;;;;;;;;15.62;100.00;-25506.66;5068653;28;19921;-80
2022/08/21 02:07:24;;;;;;;;;;;;;;;15.62;100.00;-25506.81;5037067;28;19916;-81
2022/08/21 02:09:49;;;;;;;;;;;;;;;15.57;100.00;-25505.34;5037865;28;19919;-80
2022/08/21 02:12:15;;;;;;;;;;;;;;;15.59;100.00;-25505.78;5035389;28;20039;-78
2022/08/21 02:14:40;;;;;;;;;;;;;;;15.59;100.00;-25505.78;5037602;28;19923;-80
2022/08/21 02:17:05;;;;;;;;;;;;;;;15.54;100.00;-25504.50;5037360;28;19916;-80
2022/08/21 02:19:31;;;;;;;;;;;;;;;15.53;100.00;-25504.06;5036625;28;20063;-80
2022/08/21 02:21:56;;;;;;;;;;;;;;;15.49;100.00;-25503.03;5036620;28;19913;-79
2022/08/21 02:24:21;;;;;;;;;;;;;;;15.42;100.00;-25501.13;5037863;28;19945;-81
2022/08/21 02:26:46;;;;;;;;;;;;;;;15.39;100.00;-25500.25;5036550;28;19924;-81
2022/08/21 02:29:12;;;;;;;;;;;;;;;15.39;100.00;-25500.25;5070405;28;20011;-81
2022/08/21 02:31:37;;;;;;;;;;;;;;;15.37;100.00;-25499.53;5037713;28;19917;-80
2022/08/21 02:34:02;;;;;;;;;;;;;;;15.36;100.00;-25499.25;5036459;28;19948;-80
2022/08/21 02:36:28;;;;;;;;;;;;;;;15.36;100.00;-25499.41;5037027;28;19952;-80
2022/08/21 02:38:53;;;;;;;;;;;;;;;15.34;100.00;-25498.66;5037143;28;19966;-79
2022/08/21 02:41:21;;;;;;;;;;;;;;;15.30;100.00;-25497.50;5054263;28;20330;-79
2022/08/21 02:43:46;;;;;;;;;;;;;;;15.21;100.00;-25495.19;5053657;28;19920;-80
2022/08/21 02:46:12;;;;;;;;;;;;;;;15.22;100.00;-25495.31;5037063;28;19928;-78
2022/08/21 02:48:38;;;;;;;;;;;;;;;15.24;100.00;-25495.91;5037280;28;20012;-80
2022/08/21 02:51:05;;;;;;;;;;;;;;;15.21;100.00;-25495.03;5036294;28;20013;-77
2022/08/21 02:53:32;;;;;;;;;;;;;;;15.21;100.00;-25495.19;5036866;28;19923;-77
2022/08/21 02:55:59;;;;;;;;;;;;;;;15.18;100.00;-25494.31;5039872;28;20185;-80
2022/08/21 02:58:25;;;;;;;;;;;;;;;15.11;100.00;-25492.25;5070883;28;19921;-79
2022/08/21 03:00:51;;;;;;;;;;;;;;;15.06;100.00;-25490.81;5038060;28;19917;-76
2022/08/21 03:03:16;;;;;;;;;;;;;;;15.12;100.00;-25492.56;5038299;28;20267;-76
2022/08/21 03:05:42;;;;;;;;;;;;;;;15.09;100.00;-25491.69;5049088;28;19924;-78
2022/08/21 03:08:11;;;;;;;;;;;;;;;15.05;100.00;-25490.66;5059074;28;19924;-76
2022/08/21 03:10:38;;;;;;;;;;;;;;;15.03;100.00;-25490.09;5057414;28;19916;-76
2022/08/21 03:13:03;;;;;;;;;;;;;;;15.07;100.00;-25491.09;5058119;28;20442;-78
2022/08/21 03:15:29;;;;;;;;;;;;;;;15.01;100.00;-25489.50;5057242;28;19916;-79
2022/08/21 03:17:54;;;;;;;;;;;;;;;14.95;100.00;-25487.75;5057129;28;19916;-77
2022/08/21 03:20:23;;;;;;;;;;;;;;;14.92;100.00;-25486.88;5055865;28;19916;-77
2022/08/21 03:22:48;;;;;;;;;;;;;;;14.91;100.00;-25486.59;5054921;28;19923;-76
2022/08/21 03:25:14;;;;;;;;;;;;;;;14.91;100.00;-25486.59;5054885;28;19920;-75
2022/08/21 03:27:39;;;;;;;;;;;;;;;14.87;100.00;-25485.44;5055061;28;20065;-75
2022/08/21 03:30:06;;;;;;;;;;;;;;;14.85;100.00;-25484.84;5072582;28;19919;-76
2022/08/21 03:32:32;;;;;;;;;;;;;;;14.82;100.00;-25484.13;5054892;28;19942;-75
2022/08/21 03:34:57;;;;;;;;;;;;;;;14.86;100.00;-25485.13;5055582;28;20003;-80
2022/08/21 03:37:23;;;;;;;;;;;;;;;14.85;100.00;-25485.00;5055177;28;19919;-78
2022/08/21 03:39:50;;;;;;;;;;;;;;;14.88;100.00;-25485.88;5055173;28;20390;-80
2022/08/21 03:42:15;;;;;;;;;;;;;;;14.94;100.00;-25487.47;5072369;28;19982;-78
2022/08/21 03:44:40;;;;;;;;;;;;;;;14.91;100.00;-25486.59;5088827;28;19917;-79
2022/08/21 03:47:06;;;;;;;;;;;;;;;14.94;100.00;-25487.31;5054845;28;20217;-78
2022/08/21 03:49:31;;;;;;;;;;;;;;;14.95;100.00;-25487.75;5055484;28;19981;-77
2022/08/21 03:51:57;;;;;;;;;;;;;;;14.97;100.00;-25488.34;5054387;28;20297;-75
2022/08/21 03:54:22;;;;;;;;;;;;;;;14.99;100.00;-25488.91;5054596;28;19919;-76
2022/08/21 03:56:48;;;;;;;;;;;;;;;14.99;100.00;-25488.91;5054986;28;19927;-77
2022/08/21 03:59:13;;;;;;;;;;;;;;;15.02;100.00;-25489.66;5054313;28;20343;-75
2022/08/21 04:01:39;;;;;;;;;;;;;;;15.04;100.00;-25490.38;5054086;28;19912;-74
2022/08/21 04:04:04;;;;;;;;;;;;;;;15.06;100.00;-25490.81;5088390;28;19923;-77
2022/08/21 04:06:30;;;;;;;;;;;;;;;15.09;100.00;-25491.69;5054797;28;20288;-77
2022/08/21 04:08:55;;;;;;;;;;;;;;;15.10;100.00;-25491.81;5054817;28;19948;-80
2022/08/21 04:11:20;;;;;;;;;;;;;;;15.11;100.00;-25492.13;5054119;28;20292;-77
2022/08/21 04:13:46;;;;;;;;;;;;;;;15.14;100.00;-25493.00;5053750;28;19928;-75
2022/08/21 04:16:12;;;;;;;;;;;;;;;15.11;100.00;-25492.13;5054663;28;19921;-76
2022/08/21 04:18:38;;;;;;;;;;;;;;;15.11;100.00;-25492.13;5054099;28;19955;-75
2022/08/21 04:21:03;;;;;;;;;;;;;;;15.12;100.00;-25492.56;5053850;28;19947;-74
2022/08/21 04:23:29;;;;;;;;;;;;;;;15.12;100.00;-25492.41;5054414;28;20369;-74
2022/08/21 04:25:55;;;;;;;;;;;;;;;15.06;100.00;-25490.97;5053591;28;19939;-74
2022/08/21 04:28:21;;;;;;;;;;;;;;;15.11;100.00;-25492.13;5053735;28;20039;-75
2022/08/21 04:30:55;;;;;;;;;;;;;;;15.08;100.00;-25491.53;5101859;27;19982;-79
2022/08/21 04:33:21;;;;;;;;;;;;;;;15.07;100.00;-25491.09;5067929;28;20372;-81
2022/08/21 04:35:47;;;;;;;;;;;;;;;15.10;100.00;-25491.97;5068167;28;19917;-80
2022/08/21 04:38:12;;;;;;;;;;;;;;;15.16;100.00;-25493.72;5068106;28;20035;-81
2022/08/21 04:40:38;;;;;;;;;;;;;;;15.16;100.00;-25493.72;5067434;28;19925;-79
2022/08/21 04:43:05;;;;;;;;;;;;;;;15.16;100.00;-25493.56;5067163;28;19916;-80
2022/08/21 04:45:32;;;;;;;;;;;;;;;15.12;100.00;-25492.41;5067968;28;19921;-80
2022/08/21 04:47:58;;;;;;;;;;;;;;;15.15;100.00;-25493.44;5067113;28;19917;-77
2022/08/21 04:50:50;;;;;;;;;;;;;;;15.19;100.00;-25494.59;5068819;28;19923;-81
2022/08/21 04:53:17;;;;;;;;;;;;;;;15.22;100.00;-25495.47;5067083;28;19928;-79
2022/08/21 04:55:44;;;;;;;;;;;;;;;15.28;100.00;-25497.06;5067384;28;20039;-77
2022/08/21 04:58:11;;;;;;;;;;;;;;;15.32;100.00;-25498.22;5066986;28;19967;-78
2022/08/21 05:00:37;;;;;;;;;;;;;;;15.41;100.00;-25500.84;5068435;28;20051;-80
2022/08/21 05:03:04;;;;;;;;;;;;;;;15.61;100.00;-25506.38;5066646;28;20014;-79
2022/08/21 05:05:29;;;;;;;;;;;;;;;16.06;100.00;-25519.03;5067548;28;19916;-80
2022/08/21 05:07:55;;;;;;;;;;;;;;;16.39;100.00;-25528.31;5066789;28;19927;-79
2022/08/21 05:10:21;;;;;;;;;;;;;;;17.11;100.00;-25548.63;5067522;28;19920;-80
2022/08/21 05:12:46;;;;;;;;;;;;;;;17.54;100.00;-25560.97;5067907;28;20007;-80
2022/08/21 05:15:12;;;;;;;;;;;;;;;17.70;100.00;-25565.31;5067167;28;20363;-74
2022/08/21 05:17:38;;;;;;;;;;;;;;;18.06;100.00;-25575.44;5066909;28;20032;-79
2022/08/21 05:20:05;;;;;;;;;;;;;;;18.58;100.00;-25590.22;5067158;28;19912;-76
2022/08/21 05:22:30;;;;;;;;;;;;;;;18.70;100.00;-25593.38;5067510;28;19917;-74
2022/08/21 05:24:56;;;;;;;;;;;;;;;18.62;100.00;-25591.34;5065485;28;19970;-74
2022/08/21 05:27:22;;;;;;;;;;;;;;;18.25;100.00;-24257.25;5066594;28;19939;-74
2022/08/21 05:29:47;;;;;;;;;;;;;;;18.13;100.00;-22271.28;5048831;28;20376;-76
2022/08/21 05:32:13;;;;;;;;;;;;;;;17.81;100.00;-21933.53;5065598;28;20372;-75
2022/08/21 05:34:38;;;;;;;;;;;;;;;17.80;100.00;-23585.06;5065894;28;19917;-76
2022/08/21 05:37:03;;;;;;;;;;;;;;;17.73;100.00;-25234.16;5066956;28;19917;-76
2022/08/21 05:39:29;;;;;;;;;;;;;;;18.26;100.00;-25581.22;5065956;28;19938;-77
2022/08/21 05:41:54;;;;;;;;;;;;;;;19.12;100.00;-24279.91;5055045;28;19917;-75
2022/08/21 05:44:19;;;;;;;;;;;;;;;20.17;100.00;-16343.97;5053069;28;19916;-76
2022/08/21 05:46:44;;;;;;;;;;;;;;;21.12;100.00;-2360.28;5053039;28;19921;-77
2022/08/21 05:49:10;;;;;;;;;;;;;;;21.18;100.00;22427.44;5052717;28;19917;-76
2022/08/21 05:51:35;;;;;;;;;;;;;;;21.32;100.00;46370.75;5052384;28;20043;-76
2022/08/21 05:54:01;;;;;;;;;;;;;;;21.32;100.00;74538.31;5051690;28;19943;-75
2022/08/21 05:56:26;;;;;;;;;;;;;;;21.74;100.00;97149.44;5053006;28;19917;-78
2022/08/21 05:58:51;;;;;;;;;;;;;;;21.07;100.00;102862.06;5052582;28;19943;-76
2022/08/21 06:01:16;;;;;;;;;;;;;;;20.27;100.00;81889.16;5052033;28;19920;-75
2022/08/21 06:03:42;;;;;;;;;;;;;;;20.25;100.00;59806.53;5052390;28;20377;-76
2022/08/21 06:06:08;;;;;;;;;;;;;;;20.04;100.00;53693.25;5051811;28;19916;-74
2022/08/21 06:08:33;;;;;;;;;;;;;;;19.83;100.00;44894.47;5051872;28;19936;-76
2022/08/21 06:10:59;;;;;;;;;;;;;;;20.08;100.00;37163.19;5052303;28;19917;-74
2022/08/21 06:13:25;;;;;;;;;;;;;;;20.20;100.00;35151.38;5051412;28;19928;-79
2022/08/21 06:16:00;;;;;;;;;;;;;;;19.74;100.00;36129.59;5052234;28;19923;-75
2022/08/21 06:18:25;;;;;;;;;;;;;;;19.63;100.00;27720.94;5051913;28;19921;-75
2022/08/21 06:20:50;;;;;;;;;;;;;;;19.04;100.00;20316.72;5052018;28;19962;-75
2022/08/21 06:23:16;;;;;;;;;;;;;;;19.27;100.00;9960.72;5052655;28;19916;-74
2022/08/21 06:25:41;;;;;;;;;;;;;;;19.16;100.00;5953.03;5052044;28;19924;-77
2022/08/21 06:28:08;;;;;;;;;;;;;;;19.14;100.00;2285.28;5052191;28;19956;-80
2022/08/21 06:30:35;;;;;;;;;;;;;;;19.22;100.00;-1044.66;5053470;28;19921;-76
2022/08/21 06:33:02;;;;;;;;;;;;;;;19.39;100.00;-2041.94;5051426;28;19925;-73
2022/08/21 06:35:28;;;;;;;;;;;;;;;19.44;100.00;-1708.47;5051534;28;19917;-75
2022/08/21 06:37:54;;;;;;;;;;;;;;;19.27;100.00;-3041.63;5051632;28;20381;-74
2022/08/21 06:40:26;;;;;;;;;;;;;;;19.18;100.00;-5038.50;5053147;28;19917;-79
2022/08/21 06:42:57;;;;;;;;;;;;;;;19.60;100.00;-7033.19;5052500;28;19956;-77
2022/08/21 06:45:23;;;;;;;;;;;;;;;19.89;100.00;-3370.19;5052351;28;19934;-75
2022/08/21 06:47:48;;;;;;;;;;;;;;;20.65;100.00;3979.59;5051496;28;20429;-77
2022/08/21 06:50:13;;;;;;;;;;;;;;;20.78;100.00;18716.28;5051985;28;20546;-75
2022/08/21 06:52:41;;;;;;;;;;;;;;;20.67;100.00;26770.31;5050856;28;20377;-76
2022/08/21 06:55:08;;;;;;;;;;;;;;;20.54;100.00;27099.38;5051665;28;19963;-75
2022/08/21 06:57:33;;;;;;;;;;;;;;;20.09;100.00;23717.91;5052826;28;19917;-76
2022/08/21 06:59:59;;;;;;;;;;;;;;;20.28;100.00;16684.38;5053510;28;20388;-78
2022/08/21 07:02:24;;;;;;;;;;;;;;;20.19;100.00;13667.00;5053344;28;19924;-79
2022/08/21 07:04:50;;;;;;;;;;;;;;;20.47;100.00;10663.38;5051265;28;19917;-77
2022/08/21 07:07:18;;;;;;;;;;;;;;;20.59;100.00;13680.38;5052151;28;20026;-79
2022/08/21 07:09:43;;;;;;;;;;;;;;;20.71;100.00;14354.66;5052219;28;19967;-76
2022/08/21 07:12:09;;;;;;;;;;;;;;;21.80;100.00;20103.22;5052724;28;19917;-77
2022/08/21 07:14:36;;;;;;;;;;;;;;;22.46;100.00;50535.97;5051845;28;20335;-75
2022/08/21 07:17:02;;;;;;;;;;;;;;;23.03;100.00;99769.50;5052447;28;20613;-79
2022/08/21 07:19:27;;;;;;;;;;;;;;;23.59;100.00;148648.53;5053014;28;19917;-78
2022/08/21 07:21:57;;;;;;;;;;;;;;;23.80;100.00;148699.88;5052570;28;19916;-79
2022/08/21 07:24:22;;;;;;;;;;;;;;;24.33;100.00;148832.19;5052345;28;20011;-79
2022/08/21 07:26:47;;;;;;;;;;;;;;;24.21;100.00;148802.69;5052714;28;19960;-75
2022/08/21 07:29:12;;;;;;;;;;;;;;;24.36;100.00;148839.91;5051756;28;19925;-79
2022/08/21 07:31:38;;;;;;;;;;;;;;;25.50;100.00;149124.03;5052706;28;19916;-79
2022/08/21 07:34:04;;;;;;;;;;;;;;;25.06;100.00;149016.00;5052452;28;19917;-79
2022/08/21 07:36:31;;;;;;;;;;;;;;;25.51;100.00;149127.88;5052415;28;19920;-78
2022/08/21 07:38:56;;;;;;;;;;;;;;;25.38;100.00;149095.72;5052418;28;19978;-79
2022/08/21 07:41:22;;;;;;;;;;;;;;;25.22;100.00;149054.56;5052356;28;19920;-77
2022/08/21 07:43:50;;;;;;;;;;;;;;;25.24;100.00;149059.69;5052448;28;20272;-80
2022/08/21 07:46:15;;;;;;;;;;;;;;;24.96;100.00;148989.00;5052255;28;19917;-79
2022/08/21 07:48:41;;;;;;;;;;;;;;;25.33;100.00;149082.88;5051034;28;19939;-74
2022/08/21 07:51:07;;;;;;;;;;;;;;;25.33;100.00;149082.88;5049539;28;19917;-73
2022/08/21 07:53:33;;;;;;;;;;;;;;;25.24;100.00;149059.69;5049704;28;19924;-75
2022/08/21 07:55:59;;;;;;;;;;;;;;;25.60;100.00;149150.97;5049505;28;19917;-78
2022/08/21 07:58:24;;;;;;;;;;;;;;;25.44;100.00;149109.88;5049657;28;20016;-78
2022/08/21 08:00:49;;;;;;;;;;;;;;;25.92;100.00;149229.44;5050517;28;20058;-76
2022/08/21 08:03:16;;;;;;;;;;;;;;;25.08;100.00;149021.13;5050408;28;20389;-79
2022/08/21 08:05:41;;;;;;;;;;;;;;;25.47;100.00;149117.56;5050993;28;19947;-79
2022/08/21 08:08:07;;;;;;;;;;;;;;;26.25;100.00;149311.75;5050606;28;19921;-77
2022/08/21 08:10:32;;;;;;;;;;;;;;;26.10;100.00;149275.78;5050559;28;19924;-79
2022/08/21 08:12:58;;;;;;;;;;;;;;;26.76;100.00;149440.44;5049361;28;19923;-74
2022/08/21 08:15:25;;;;;;;;;;;;;;;26.93;100.00;149481.63;5050597;28;19917;-79
2022/08/21 08:17:50;;;;;;;;;;;;;;;26.55;100.00;149386.34;5050279;28;19916;-77
2022/08/21 08:20:18;;;;;;;;;;;;;;;26.75;100.00;149437.84;5049834;28;20262;-76
2022/08/21 08:22:45;;;;;;;;;;;;;;;26.30;100.00;149325.94;5051746;28;19917;-77
2022/08/21 08:25:12;;;;;;;;;;;;;;;26.32;100.00;149331.06;5049999;28;19935;-79
2022/08/21 08:27:38;;;;;;;;;;;;;;;26.42;100.00;149355.47;5051078;28;20320;-78
2022/08/21 08:30:04;;;;;;;;;;;;;;;26.62;100.00;149404.38;5050179;28;19929;-76
2022/08/21 08:32:32;;;;;;;;;;;;;;;26.53;100.00;149382.50;5050144;28;20003;-79
2022/08/21 08:34:57;;;;;;;;;;;;;;;27.27;100.00;149567.81;5049835;28;19917;-76
2022/08/21 08:37:22;;;;;;;;;;;;;;;26.59;100.00;149396.66;5050865;28;19940;-78
2022/08/21 08:39:49;;;;;;;;;;;;;;;26.08;100.00;149270.59;5049809;28;19917;-76
2022/08/21 08:42:19;;;;;;;;;;;;;;;26.06;100.00;149265.47;5050114;28;20208;-78
2022/08/21 08:44:45;;;;;;;;;;;;;;;25.91;100.00;149226.84;5051013;28;19913;-78
2022/08/21 08:47:13;;;;;;;;;;;;;;;26.07;100.00;149266.72;5049961;28;20028;-76
2022/08/21 08:49:58;;;;;;;;;;;;;;;26.20;100.00;149298.91;5049740;28;19959;-78
2022/08/21 08:52:28;;;;;;;;;;;;;;;26.08;100.00;149269.31;5050439;28;20015;-77
2022/08/21 08:55:13;;;;;;;;;;;;;;;26.78;100.00;149445.56;5049697;28;19913;-74
2022/08/21 08:57:42;;;;;;;;;;;;;;;26.23;100.00;149306.63;5046015;28;19924;-76
2022/08/21 09:00:10;;;;;;;;;;;;;;;26.40;100.00;149350.34;5049648;28;19917;-76
2022/08/21 09:02:41;;;;;;;;;;;;;;;26.11;100.00;149277.03;5049505;28;19994;-77
2022/08/21 09:05:07;;;;;;;;;;;;;;;26.14;100.00;149284.75;5050257;28;19917;-76
2022/08/21 09:07:51;;;;;;;;;;;;;;;26.49;100.00;149373.50;5049939;28;19996;-75
2022/08/21 09:10:23;;;;;;;;;;;;;;;26.65;100.00;149412.09;5049695;28;19974;-77
2022/08/21 09:13:13;;;;;;;;;;;;;;;26.25;100.00;149311.75;5050261;28;19960;-75
2022/08/21 09:15:49;;;;;;;;;;;;;;;26.40;100.00;149349.03;5050071;28;19929;-76
2022/08/21 09:18:34;;;;;;;;;;;;;;;26.89;100.00;149471.31;5053211;28;19974;-77
2022/08/21 09:21:09;;;;;;;;;;;;;;;26.78;100.00;149444.28;5054434;28;19917;-77
2022/08/21 09:23:53;;;;;;;;;;;;;;;26.99;100.00;149497.06;5055082;28;19940;-79
2022/08/21 09:26:19;;;;;;;;;;;;;;;27.69;100.00;149673.38;5053524;28;19923;-76
2022/08/21 09:28:47;;;;;;;;;;;;;;;27.52;100.00;149630.91;5052546;28;19925;-75
2022/08/21 09:31:21;;;;;;;;;;;;;;;27.29;100.00;149572.94;5052510;28;20041;-75
2022/08/21 09:33:47;;;;;;;;;;;;;;;26.90;100.00;149473.91;5052996;28;20381;-75
2022/08/21 09:36:22;;;;;;;;;;;;;;;26.25;100.00;149311.75;5052550;28;19932;-74
2022/08/21 09:38:51;;;;;;;;;;;;;;;25.72;100.00;149180.56;5052434;28;19917;-75
2022/08/21 09:41:25;;;;;;;;;;;;;;;25.27;100.00;149068.66;5053779;28;20066;-78
2022/08/21 09:43:54;;;;;;;;;;;;;;;25.30;100.00;149075.16;5053858;28;19916;-75
2022/08/21 09:46:21;;;;;;;;;;;;;;;25.05;100.00;149013.41;5052191;28;19960;-76
2022/08/21 09:48:47;;;;;;;;;;;;;;;25.04;100.00;149009.56;5053214;28;19964;-77
2022/08/21 09:51:20;;;;;;;;;;;;;;;25.31;100.00;149077.75;5053273;28;20666;-78
2022/08/21 09:53:56;;;;;;;;;;;;;;;25.40;100.00;149100.88;5053862;28;19921;-79
2022/08/21 09:59:15;;;;;;;;;;;;;;;25.87;100.00;149216.53;5055113;28;20392;-78
2022/08/21 10:01:45;;;;;;;;;;;;;;;25.84;100.00;149210.13;5054304;28;19917;-75
2022/08/21 10:04:11;;;;;;;;;;;;;;;24.77;100.00;148942.75;5051610;28;19912;-75
2022/08/21 10:06:37;;;;;;;;;;;;;;;24.65;100.00;148913.19;5053355;28;19953;-76
2022/08/21 10:09:04;;;;;;;;;;;;;;;24.04;100.00;148759.03;5053723;28;19912;-76
2022/08/21 10:11:30;;;;;;;;;;;;;;;24.62;100.00;148905.47;5053183;28;19917;-75
2022/08/21 10:14:13;;;;;;;;;;;;;;;24.91;100.00;148977.44;5053888;28;19973;-77
2022/08/21 10:16:38;;;;;;;;;;;;;;;24.79;100.00;148946.59;5053875;28;19940;-76
2022/08/21 10:19:10;;;;;;;;;;;;;;;25.25;100.00;149062.28;5052781;28;20691;-77
2022/08/21 10:21:35;;;;;;;;;;;;;;;24.84;100.00;148960.72;5053251;28;19933;-78
2022/08/21 10:24:25;;;;;;;;;;;;;;;24.18;100.00;148794.97;5052464;28;19924;-79
2022/08/21 10:26:50;;;;;;;;;;;;;;;23.89;100.00;148723.06;5053226;28;19917;-79
2022/08/21 10:29:24;;;;;;;;;;;;;;;23.89;100.00;148723.06;5052774;28;19927;-79
2022/08/21 10:32:06;;;;;;;;;;;;;;;23.54;100.00;148634.41;5052811;28;20242;-74
2022/08/21 10:34:35;;;;;;;;;;;;;;;23.50;100.00;148624.16;5052134;28;20007;-75
2022/08/21 10:37:14;;;;;;;;;;;;;;;23.45;100.00;148613.88;5052295;28;19916;-76
2022/08/21 10:39:52;;;;;;;;;;;;;;;23.51;100.00;148626.69;5052043;28;19943;-77
2022/08/21 10:42:25;;;;;;;;;;;;;;;23.55;100.00;148638.25;5051952;28;19917;-77
2022/08/21 10:45:29;;;;;;;;;;;;;;;23.54;100.00;148635.72;5052193;28;19951;-76
2022/08/21 10:47:56;;;;;;;;;;;;;;;23.79;100.00;148698.63;5049628;28;20407;-77
2022/08/21 10:50:36;;;;;;;;;;;;;;;24.53;100.00;148882.31;5034283;28;20381;-75
2022/08/21 10:53:04;;;;;;;;;;;;;;;24.69;100.00;148923.47;5042046;28;19913;-77
2022/08/21 10:55:33;;;;;;;;;;;;;;;24.86;100.00;148964.56;5051977;28;19917;-76
2022/08/21 10:58:00;;;;;;;;;;;;;;;24.68;100.00;148920.91;5051543;28;19913;-75
2022/08/21 11:00:46;;;;;;;;;;;;;;;24.76;100.00;148940.16;5051448;28;20030;-77
2022/08/21 11:03:29;;;;;;;;;;;;;;;24.60;100.00;148899.09;5052550;28;19916;-80
2022/08/21 11:05:57;;;;;;;;;;;;;;;25.18;100.00;149044.25;5053567;28;19924;-77
2022/08/21 11:08:30;;;;;;;;;;;;;;;25.39;100.00;149098.28;5052262;28;20003;-76
2022/08/21 11:11:08;;;;;;;;;;;;;;;25.49;100.00;149121.44;5052120;28;19921;-77
2022/08/21 11:13:43;;;;;;;;;;;;;;;25.58;100.00;149144.56;5053639;28;19917;-75
2022/08/21 11:16:27;;;;;;;;;;;;;;;25.55;100.00;149136.84;5051933;28;20071;-79
2022/08/21 11:19:06;;;;;;;;;;;;;;;25.59;100.00;149147.13;5052152;28;20034;-77
2022/08/21 11:21:41;;;;;;;;;;;;;;;25.82;100.00;149204.97;5052571;28;19923;-78
2022/08/21 11:24:13;;;;;;;;;;;;;;;25.41;100.00;149102.16;5051385;28;20271;-76
2022/08/21 11:26:46;;;;;;;;;;;;;;;24.67;100.00;148918.34;5052299;28;19916;-76
2022/08/21 11:29:16;;;;;;;;;;;;;;;24.56;100.00;148890.00;5051485;28;20016;-78
2022/08/21 11:31:51;;;;;;;;;;;;;;;24.17;100.00;148793.66;5051881;28;20074;-77
2022/08/21 11:34:23;;;;;;;;;;;;;;;24.11;100.00;148777.00;5052001;28;20019;-75
2022/08/21 11:36:59;;;;;;;;;;;;;;;24.13;100.00;148783.44;5053293;28;19958;-77
2022/08/21 11:39:27;;;;;;;;;;;;;;;23.68;100.00;148670.38;5051630;28;20384;-80
2022/08/21 11:42:22;;;;;;;;;;;;;;;23.66;100.00;148665.22;5051670;28;19923;-78
2022/08/21 11:45:06;;;;;;;;;;;;;;;23.59;100.00;148648.53;5052189;28;19924;-76
2022/08/21 11:47:49;;;;;;;;;;;;;;;23.63;100.00;148658.81;5052348;28;19923;-79
2022/08/21 11:50:21;;;;;;;;;;;;;;;23.64;100.00;148661.38;5052723;28;20007;-78
2022/08/21 11:53:05;;;;;;;;;;;;;;;23.43;100.00;148608.75;5051292;28;20361;-79
2022/08/21 11:55:48;;;;;;;;;;;;;;;23.61;100.00;148653.66;5051952;28;20012;-75
2022/08/21 11:58:17;;;;;;;;;;;;;;;23.73;100.00;148683.22;5051081;28;20468;-76
2022/08/21 12:00:46;;;;;;;;;;;;;;;23.60;100.00;148651.13;5052119;28;20373;-77
2022/08/21 12:03:22;;;;;;;;;;;;;;;23.71;100.00;148676.78;5051109;28;19955;-79
2022/08/21 12:05:56;;;;;;;;;;;;;;;23.39;100.00;148597.19;5049198;28;19917;-79
2022/08/21 12:08:27;;;;;;;;;;;;;;;23.29;100.00;148574.09;5051896;28;19975;-78
2022/08/21 12:11:05;;;;;;;;;;;;;;;23.32;100.00;148580.53;5051671;28;19923;-77
2022/08/21 12:13:34;;;;;;;;;;;;;;;23.43;100.00;148608.75;5051099;28;20339;-76
2022/08/21 12:16:11;;;;;;;;;;;;;;;23.96;100.00;148739.78;5051709;28;19996;-79
2022/08/21 12:18:37;;;;;;;;;;;;;;;23.98;100.00;148746.16;5051696;28;19920;-77
2022/08/21 12:21:05;;;;;;;;;;;;;;;23.73;100.00;148683.22;5051147;28;20004;-78
2022/08/21 12:23:43;;;;;;;;;;;;;;;23.66;100.00;148666.53;5051072;28;19971;-76
2022/08/21 12:26:09;;;;;;;;;;;;;;;23.71;100.00;148676.78;5050856;28;20404;-77
2022/08/21 12:28:34;;;;;;;;;;;;;;;23.52;100.00;148629.28;5052524;28;19917;-76
2022/08/21 12:31:00;;;;;;;;;;;;;;;23.83;100.00;148707.59;5052530;28;19927;-80
2022/08/21 12:33:39;;;;;;;;;;;;;;;23.96;100.00;148739.78;5051181;28;19928;-79
2022/08/21 12:36:10;;;;;;;;;;;;;;;24.10;100.00;148775.72;5052466;28;20066;-76